createdAt,value
2024-03-02T00:01:54.648Z,17.30
2024-03-02T00:04:24.232Z,16.83
2024-03-02T00:06:55.786Z,20.20
2024-03-02T00:09:24.205Z,19.73
2024-03-02T00:11:53.041Z,18.70
2024-03-02T00:14:21.632Z,17.77
2024-03-02T00:16:49.949Z,17.00
2024-03-02T00:19:18.407Z,16.63
2024-03-02T00:21:48.846Z,17.57
2024-03-02T00:24:23.910Z,14.23
2024-03-02T00:26:52.471Z,15.53
2024-03-02T00:29:22.244Z,19.43
2024-03-02T00:31:50.625Z,23.33
2024-03-02T00:34:20.103Z,24.03
2024-03-02T00:36:50.136Z,22.70
2024-03-02T00:39:19.556Z,24.60
2024-03-02T00:41:48.749Z,22.67
2024-03-02T00:44:21.134Z,25.03
2024-03-02T00:46:49.393Z,24.60
2024-03-02T00:49:23.652Z,21.40
2024-03-02T00:51:55.567Z,21.37
2024-03-02T00:54:27.159Z,20.90
2024-03-02T00:56:57.484Z,20.13
2024-03-02T00:59:26.289Z,21.73
2024-03-02T01:01:55.095Z,20.13
2024-03-02T01:04:23.415Z,27.33
2024-03-02T01:06:53.094Z,28.60
2024-03-02T01:09:21.619Z,22.43
2024-03-02T01:11:50.206Z,21.47
2024-03-02T01:14:18.532Z,21.50
2024-03-02T01:16:46.843Z,18.70
2024-03-02T01:19:15.958Z,22.37
2024-03-02T01:21:44.440Z,33.47
2024-03-02T01:24:14.443Z,29.93
2024-03-02T01:26:42.755Z,35.13
2024-03-02T01:29:10.984Z,36.23
2024-03-02T01:31:40.820Z,34.67
2024-03-02T01:34:09.099Z,29.47
2024-03-02T01:36:37.411Z,25.17
2024-03-02T01:39:09.937Z,22.50
2024-03-02T01:41:39.611Z,18.50
2024-03-02T01:44:07.974Z,17.37
2024-03-02T01:46:36.962Z,19.93
2024-03-02T01:49:05.603Z,19.30
2024-03-02T01:51:33.973Z,21.47
2024-03-02T01:54:02.303Z,22.90
2024-03-02T01:56:30.596Z,19.70
2024-03-02T01:59:00.225Z,20.37
2024-03-02T02:01:28.785Z,18.13
2024-03-02T02:03:57.191Z,20.37
2024-03-02T02:06:25.513Z,18.73
2024-03-02T02:08:53.842Z,17.90
2024-03-02T02:11:22.402Z,16.67
2024-03-02T02:13:50.749Z,17.90
2024-03-02T02:16:20.477Z,16.00
2024-03-02T02:18:48.778Z,16.17
2024-03-02T02:21:17.299Z,18.33
2024-03-02T02:23:49.444Z,19.70
2024-03-02T02:26:17.770Z,15.80
2024-03-02T02:28:48.139Z,18.43
2024-03-02T02:31:16.546Z,16.73
2024-03-02T02:33:45.078Z,16.50
2024-03-02T02:36:13.290Z,13.60
2024-03-02T02:38:49.150Z,17.70
2024-03-02T02:41:17.493Z,17.60
2024-03-02T02:43:45.739Z,16.03
2024-03-02T02:46:13.951Z,18.57
2024-03-02T02:48:42.226Z,15.83
2024-03-02T02:51:10.469Z,16.37
2024-03-02T02:53:41.380Z,15.63
2024-03-02T02:56:11.530Z,17.40
2024-03-02T02:58:39.753Z,14.10
2024-03-02T03:01:08.745Z,20.47
2024-03-02T03:03:37.082Z,15.10
2024-03-02T03:06:05.856Z,19.07
2024-03-02T03:08:34.083Z,17.47
2024-03-02T03:11:02.412Z,18.07
2024-03-02T03:13:32.162Z,17.13
2024-03-02T03:16:00.593Z,15.50
2024-03-02T03:18:28.886Z,16.93
2024-03-02T03:20:57.131Z,14.57
2024-03-02T03:23:26.919Z,18.37
2024-03-02T03:25:55.152Z,25.07
2024-03-02T03:28:23.379Z,33.17
2024-03-02T03:30:53.026Z,31.43
2024-03-02T03:33:21.338Z,31.17
2024-03-02T03:35:49.530Z,31.50
2024-03-02T03:38:17.740Z,28.60
2024-03-02T03:40:46.125Z,28.40
2024-03-02T03:43:14.422Z,29.90
2024-03-02T03:45:43.195Z,28.30
2024-03-02T03:48:12.809Z,29.77
2024-03-02T03:50:41.048Z,25.73
2024-03-02T03:53:09.482Z,25.67
2024-03-02T03:55:37.711Z,27.87
2024-03-02T03:58:06.287Z,27.23
2024-03-02T04:00:34.572Z,24.67
2024-03-02T04:03:02.814Z,23.30
2024-03-02T04:05:32.413Z,23.27
2024-03-02T04:08:01.308Z,21.30
2024-03-02T04:10:29.555Z,24.53
2024-03-02T04:12:57.994Z,22.13
2024-03-02T04:15:26.246Z,21.67
2024-03-02T04:17:54.445Z,20.80
2024-03-02T04:20:22.674Z,24.20
2024-03-02T04:22:52.266Z,21.13
2024-03-02T04:25:21.009Z,21.23
2024-03-02T04:27:49.284Z,22.97
2024-03-02T04:30:17.863Z,23.57
2024-03-02T04:32:47.678Z,21.80
2024-03-02T04:35:16.443Z,21.73
2024-03-02T04:37:44.835Z,22.57
2024-03-02T04:40:15.148Z,21.20
2024-03-02T04:42:44.156Z,22.33
2024-03-02T04:45:12.476Z,19.20
2024-03-02T04:47:40.710Z,23.40
2024-03-02T04:50:10.203Z,22.80
2024-03-02T04:52:38.561Z,19.07
2024-03-02T04:55:30.610Z,20.03
2024-03-02T04:58:00.457Z,17.77
2024-03-02T05:00:28.793Z,20.43
2024-03-02T05:02:57.010Z,20.67
2024-03-02T05:05:25.241Z,22.00
2024-03-02T05:07:53.466Z,18.70
2024-03-02T05:10:21.824Z,22.23
2024-03-02T05:12:58.483Z,20.90
2024-03-02T05:15:30.652Z,21.63
2024-03-02T05:18:00.587Z,23.20
2024-03-02T05:20:28.914Z,22.73
2024-03-02T05:22:57.136Z,23.90
2024-03-02T05:25:25.398Z,25.93
2024-03-02T05:27:53.627Z,25.73
2024-03-02T05:30:22.072Z,24.90
2024-03-02T05:32:51.770Z,25.33
2024-03-02T05:35:20.084Z,21.63
2024-03-02T05:37:48.286Z,23.80
2024-03-02T05:40:16.794Z,22.07
2024-03-02T05:42:45.075Z,26.17
2024-03-02T05:45:13.575Z,24.33
2024-03-02T05:47:41.845Z,21.60
2024-03-02T05:50:11.912Z,22.03
2024-03-02T05:52:40.169Z,21.53
2024-03-02T05:55:09.109Z,22.93
2024-03-02T05:57:50.414Z,21.80
2024-03-02T06:00:19.719Z,21.87
2024-03-02T06:02:48.101Z,22.50
2024-03-02T06:05:19.791Z,18.03
2024-03-02T06:07:48.033Z,20.07
2024-03-02T06:10:16.515Z,20.67
2024-03-02T06:12:44.860Z,17.97
2024-03-02T06:15:13.101Z,19.07
2024-03-02T06:17:41.362Z,22.17
2024-03-02T06:20:11.708Z,17.90
2024-03-02T06:22:41.331Z,20.00
2024-03-02T06:25:10.396Z,22.03
2024-03-02T06:27:38.724Z,22.93
2024-03-02T06:30:09.089Z,18.50
2024-03-02T06:32:37.307Z,19.07
2024-03-02T06:35:08.591Z,18.77
2024-03-02T06:37:36.803Z,18.23
2024-03-02T06:40:08.710Z,19.70
2024-03-02T06:42:37.203Z,20.63
2024-03-02T06:45:06.793Z,23.47
2024-03-02T06:47:35.062Z,19.40
2024-03-02T06:50:03.374Z,22.60
2024-03-02T06:52:31.605Z,21.77
2024-03-02T06:54:59.933Z,19.87
2024-03-02T06:57:29.603Z,20.63
2024-03-02T06:59:59.806Z,20.30
2024-03-02T07:02:28.877Z,17.67
2024-03-02T07:04:57.184Z,20.57
2024-03-02T07:07:25.432Z,19.70
2024-03-02T07:09:53.713Z,18.87
2024-03-02T07:12:22.042Z,23.00
2024-03-02T07:15:12.552Z,20.43
2024-03-02T07:17:40.845Z,16.73
2024-03-02T07:20:10.068Z,15.83
2024-03-02T07:22:40.471Z,18.77
2024-03-02T07:26:54.544Z,17.37
2024-03-02T07:27:59.044Z,20.80
2024-03-02T07:30:30.281Z,22.37
2024-03-02T07:32:59.576Z,18.47
2024-03-02T07:35:28.958Z,15.83
2024-03-02T07:37:57.801Z,15.17
2024-03-02T07:40:26.252Z,13.63
2024-03-02T07:42:54.718Z,17.93
2024-03-02T07:45:23.088Z,19.30
2024-03-02T07:47:52.795Z,16.13
2024-03-02T07:50:21.177Z,17.70
2024-03-02T07:52:49.404Z,17.93
2024-03-02T07:55:17.796Z,18.37
2024-03-02T07:57:46.079Z,18.00
2024-03-02T08:00:15.683Z,17.63
2024-03-02T08:02:44.331Z,16.73
2024-03-02T08:05:14.120Z,16.20
2024-03-02T08:07:42.987Z,15.13
2024-03-02T08:10:12.479Z,14.17
2024-03-02T08:12:40.860Z,14.97
2024-03-02T08:15:09.863Z,16.80
2024-03-02T08:17:38.701Z,14.30
2024-03-02T08:20:09.392Z,14.80
2024-03-02T08:22:39.427Z,17.07
2024-03-02T08:25:09.035Z,14.60
2024-03-02T08:27:37.700Z,15.37
2024-03-02T08:30:09.312Z,13.47
2024-03-02T08:32:37.584Z,12.63
2024-03-02T08:35:07.836Z,14.60
2024-03-02T08:37:36.137Z,13.60
2024-03-02T08:40:08.267Z,14.70
2024-03-02T08:42:36.890Z,13.43
2024-03-02T08:45:05.966Z,13.63
2024-03-02T08:47:34.849Z,14.07
2024-03-02T08:50:03.216Z,14.10
2024-03-02T08:52:31.503Z,12.03
2024-03-02T08:54:59.816Z,13.10
2024-03-02T08:57:29.576Z,12.10
2024-03-02T08:59:57.829Z,11.20
2024-03-02T09:02:26.208Z,8.97
2024-03-02T09:04:54.855Z,11.10
2024-03-02T09:07:23.128Z,9.63
2024-03-02T09:09:51.568Z,8.40
2024-03-02T09:12:20.083Z,8.70
2024-03-02T09:14:49.962Z,8.07
2024-03-02T09:17:18.236Z,8.13
2024-03-02T09:19:46.449Z,8.20
2024-03-02T09:22:14.722Z,7.80
2024-03-02T09:24:42.997Z,9.13
2024-03-02T09:27:11.223Z,7.97
2024-03-02T09:29:39.452Z,7.17
2024-03-02T09:32:14.529Z,8.10
2024-03-02T09:34:42.793Z,7.37
2024-03-02T09:37:11.032Z,8.80
2024-03-02T09:39:39.269Z,7.63
2024-03-02T09:42:08.292Z,8.37
2024-03-02T09:44:36.702Z,9.60
2024-03-02T09:47:05.290Z,8.83
2024-03-02T09:49:35.484Z,8.87
2024-03-02T09:52:07.956Z,9.27
2024-03-02T09:54:36.292Z,9.00
2024-03-02T09:57:05.262Z,10.47
2024-03-02T09:59:33.488Z,7.63
2024-03-02T10:02:04.028Z,8.17
2024-03-02T10:04:36.906Z,8.83
2024-03-02T10:07:16.482Z,8.10
2024-03-02T10:09:46.716Z,9.07
2024-03-02T10:12:17.825Z,7.27
2024-03-02T10:14:49.623Z,7.40
2024-03-02T10:17:20.284Z,9.80
2024-03-02T10:19:49.891Z,8.80
2024-03-02T10:22:18.099Z,7.47
2024-03-02T10:24:47.470Z,7.67
2024-03-02T10:27:20.509Z,9.80
2024-03-02T10:29:49.415Z,8.10
2024-03-02T10:32:18.730Z,7.27
2024-03-02T10:34:49.424Z,7.47
2024-03-02T10:37:19.428Z,9.37
2024-03-02T10:39:49.318Z,10.07
2024-03-02T10:42:18.498Z,9.00
2024-03-02T10:44:48.105Z,10.83
2024-03-02T10:47:18.517Z,10.43
2024-03-02T10:49:51.980Z,8.83
2024-03-02T10:52:20.292Z,10.13
2024-03-02T10:54:48.614Z,10.37
2024-03-02T10:57:24.066Z,9.80
2024-03-02T10:59:58.490Z,11.20
2024-03-02T11:02:28.750Z,13.63
2024-03-02T11:05:02.326Z,10.17
2024-03-02T11:07:31.830Z,8.87
2024-03-02T11:10:09.593Z,9.07
2024-03-02T11:12:50.000Z,9.20
2024-03-02T11:15:21.365Z,9.27
2024-03-02T11:17:51.038Z,9.93
2024-03-02T11:20:21.756Z,9.20
2024-03-02T11:22:50.131Z,10.00
2024-03-02T11:25:28.600Z,9.47
2024-03-02T11:28:05.119Z,7.50
2024-03-02T11:30:52.181Z,7.47
2024-03-02T11:33:28.582Z,8.23
2024-03-02T11:35:59.571Z,8.53
2024-03-02T11:38:36.041Z,7.60
2024-03-02T11:41:09.823Z,9.27
2024-03-02T11:43:41.456Z,6.97
2024-03-02T11:46:09.963Z,7.63
2024-03-02T11:48:41.316Z,6.87
2024-03-02T11:51:12.512Z,7.33
2024-03-02T11:53:42.388Z,8.10
2024-03-02T11:56:13.644Z,8.03
2024-03-02T11:58:43.472Z,6.37
2024-03-02T12:01:14.443Z,8.73
2024-03-02T12:03:43.119Z,10.73
2024-03-02T12:06:14.181Z,10.13
2024-03-02T12:08:44.279Z,11.10
2024-03-02T12:11:17.318Z,8.93
2024-03-02T12:13:57.043Z,8.57
2024-03-02T12:16:28.149Z,10.17
2024-03-02T12:18:57.495Z,9.20
2024-03-02T12:21:27.426Z,9.57
2024-03-02T12:23:56.048Z,11.10
2024-03-02T12:26:25.559Z,10.20
2024-03-02T12:28:54.019Z,10.10
2024-03-02T12:31:22.705Z,9.40
2024-03-02T12:33:51.382Z,11.17
2024-03-02T12:36:21.263Z,11.00
2024-03-02T12:38:51.662Z,10.43
2024-03-02T12:41:19.927Z,9.00
2024-03-02T12:43:48.196Z,9.70
2024-03-02T12:46:17.709Z,9.90
2024-03-02T12:48:46.069Z,9.73
2024-03-02T12:51:15.473Z,11.40
2024-03-02T12:53:43.790Z,11.63
2024-03-02T12:56:13.481Z,12.50
2024-03-02T12:58:43.326Z,12.43
2024-03-02T13:01:12.379Z,10.53
2024-03-02T13:03:40.948Z,11.50
2024-03-02T13:06:10.696Z,12.17
2024-03-02T13:08:38.936Z,12.87
2024-03-02T13:11:08.122Z,13.00
2024-03-02T13:13:38.580Z,12.00
2024-03-02T13:16:11.139Z,11.43
2024-03-02T13:18:40.916Z,11.63
2024-03-02T13:21:09.536Z,10.60
2024-03-02T13:23:37.838Z,9.57
2024-03-02T13:26:08.540Z,10.37
2024-03-02T13:28:38.950Z,11.87
2024-03-02T13:31:07.895Z,8.70
2024-03-02T13:33:36.238Z,11.33
2024-03-02T13:36:05.392Z,10.83
2024-03-02T13:38:33.623Z,11.00
2024-03-02T13:41:02.324Z,9.57
2024-03-02T13:43:32.999Z,10.17
2024-03-02T13:46:03.915Z,10.87
2024-03-02T13:48:33.063Z,10.80
2024-03-02T13:51:01.318Z,8.47
2024-03-02T13:53:29.590Z,12.07
2024-03-02T13:55:57.955Z,11.30
2024-03-02T13:58:26.238Z,11.80
2024-03-02T14:00:54.762Z,13.00
2024-03-02T14:03:24.658Z,12.20
2024-03-02T14:05:53.849Z,11.90
2024-03-02T14:08:22.375Z,11.43
2024-03-02T14:10:50.660Z,11.10
2024-03-02T14:13:18.938Z,11.07
2024-03-02T14:15:47.769Z,17.23
2024-03-02T14:18:16.135Z,15.47
2024-03-02T14:20:46.780Z,14.33
2024-03-02T14:23:15.190Z,14.77
2024-03-02T14:25:43.484Z,16.97
2024-03-02T14:28:36.261Z,17.37
2024-03-02T14:31:01.890Z,15.40
2024-03-02T14:33:31.670Z,15.33
2024-03-02T14:36:01.427Z,17.43
2024-03-02T14:38:30.091Z,15.90
2024-03-02T14:40:58.609Z,17.67
2024-03-02T14:43:26.845Z,18.60
2024-03-02T14:45:55.153Z,18.80
2024-03-02T14:48:23.811Z,17.40
2024-03-02T14:50:52.246Z,16.97
2024-03-02T14:53:21.862Z,15.37
2024-03-02T14:55:50.723Z,15.30
2024-03-02T14:58:18.955Z,15.27
2024-03-02T15:00:47.350Z,14.53
2024-03-02T15:03:15.907Z,13.73
2024-03-02T15:05:44.263Z,17.30
2024-03-02T15:08:12.735Z,16.97
2024-03-02T15:10:44.999Z,16.60
2024-03-02T15:13:14.365Z,14.20
2024-03-02T15:15:43.295Z,17.33
2024-03-02T15:18:11.582Z,15.37
2024-03-02T15:20:39.851Z,17.27
2024-03-02T15:23:08.051Z,14.00
2024-03-02T15:25:36.298Z,15.90
2024-03-02T15:28:07.003Z,15.97
2024-03-02T15:30:35.305Z,17.03
2024-03-02T15:33:03.576Z,14.90
2024-03-02T15:35:31.823Z,15.80
2024-03-02T15:38:00.299Z,20.83
2024-03-02T15:40:29.328Z,17.23
2024-03-02T15:42:57.551Z,16.03
2024-03-02T15:45:34.394Z,18.10
2024-03-02T15:48:03.302Z,16.80
2024-03-02T15:50:33.647Z,16.67
2024-03-02T15:53:05.388Z,15.87
2024-03-02T15:55:33.643Z,18.93
2024-03-02T15:58:02.181Z,14.97
2024-03-02T16:00:31.919Z,17.07
2024-03-02T16:03:00.163Z,18.57
2024-03-02T16:05:28.403Z,16.97
2024-03-02T16:07:56.598Z,16.37
2024-03-02T16:10:25.688Z,16.97
2024-03-02T16:12:54.629Z,16.80
2024-03-02T16:15:23.164Z,17.07
2024-03-02T16:17:52.735Z,16.90
2024-03-02T16:20:21.147Z,18.77
2024-03-02T16:22:49.386Z,16.27
2024-03-02T16:25:17.852Z,17.47
2024-03-02T16:27:46.116Z,15.37
2024-03-02T16:30:15.300Z,17.63
2024-03-02T16:32:43.641Z,16.70
2024-03-02T16:35:13.337Z,15.90
2024-03-02T16:37:41.627Z,19.57
2024-03-02T16:40:11.536Z,17.60
2024-03-02T16:42:39.841Z,16.73
2024-03-02T16:45:08.848Z,13.70
2024-03-02T16:47:37.121Z,16.53
2024-03-02T16:50:09.210Z,18.27
2024-03-02T16:52:38.831Z,16.00
2024-03-02T16:55:08.539Z,19.23
2024-03-02T16:57:37.119Z,15.57
2024-03-02T17:00:08.241Z,16.23
2024-03-02T17:02:36.701Z,15.00
2024-03-02T17:05:05.374Z,15.30
2024-03-02T17:07:33.755Z,16.63
2024-03-02T17:10:05.444Z,13.77
2024-03-02T17:12:33.763Z,15.97
2024-03-02T17:15:02.030Z,14.37
2024-03-02T17:17:30.284Z,16.50
2024-03-02T17:19:58.938Z,16.50
2024-03-02T17:22:27.317Z,14.20
2024-03-02T17:24:56.985Z,15.00
2024-03-02T17:27:27.705Z,13.63
2024-03-02T17:29:56.037Z,14.07
2024-03-02T17:32:24.321Z,17.20
2024-03-02T17:34:52.627Z,15.03
2024-03-02T17:37:20.903Z,15.57
2024-03-02T17:39:49.457Z,17.97
2024-03-02T17:42:18.021Z,20.47
2024-03-02T17:44:47.624Z,18.77
2024-03-02T17:47:15.861Z,18.53
2024-03-02T17:49:44.054Z,19.30
2024-03-02T17:52:12.740Z,24.53
2024-03-02T17:54:41.528Z,19.13
2024-03-02T17:57:09.935Z,19.47
2024-03-02T17:59:38.750Z,19.90
2024-03-02T18:02:09.038Z,19.27
2024-03-02T18:04:37.557Z,17.77
2024-03-02T18:20:53.141Z,11.83
2024-03-02T18:23:21.450Z,14.20
2024-03-02T18:25:49.719Z,19.30
2024-03-02T18:28:18.162Z,18.07
2024-03-02T18:30:46.659Z,16.43
2024-03-02T18:33:16.014Z,15.63
2024-03-02T18:35:44.588Z,17.23
2024-03-02T18:38:14.171Z,14.90
2024-03-02T18:40:47.990Z,14.47
2024-03-02T18:43:16.281Z,11.13
2024-03-02T18:45:44.688Z,13.10
2024-03-02T18:48:13.055Z,13.43
2024-03-02T18:50:41.360Z,14.03
2024-03-02T18:53:11.620Z,15.23
2024-03-02T18:55:43.822Z,13.93
2024-03-02T18:58:12.136Z,13.10
2024-03-02T19:00:40.737Z,15.17
2024-03-02T19:03:11.157Z,16.20
2024-03-02T19:05:40.007Z,16.03
2024-03-02T19:08:09.069Z,16.77
2024-03-02T19:10:37.372Z,13.93
2024-03-02T19:13:07.618Z,13.47
2024-03-02T19:15:36.385Z,14.67
2024-03-02T19:18:05.116Z,10.80
2024-03-02T19:20:33.587Z,12.83
2024-03-02T19:23:01.910Z,13.33
2024-03-02T19:25:30.210Z,12.00
2024-03-02T19:27:58.620Z,11.73
2024-03-02T19:30:28.497Z,14.93
2024-03-02T19:32:56.721Z,13.13
2024-03-02T19:35:26.232Z,13.10
2024-03-02T19:37:56.385Z,10.60
2024-03-02T19:40:24.628Z,12.60
2024-03-02T19:42:52.925Z,11.57
2024-03-02T19:45:21.164Z,11.03
2024-03-02T19:47:50.776Z,9.67
2024-03-02T19:50:19.037Z,10.73
2024-03-02T19:52:47.416Z,14.60
2024-03-02T19:55:16.549Z,11.53
2024-03-02T19:57:46.433Z,10.93
2024-03-02T20:00:16.309Z,8.73
2024-03-02T20:28:11.575Z,15.53
2024-03-02T20:30:41.992Z,12.97
2024-03-02T20:33:10.350Z,13.13
2024-03-02T20:35:39.295Z,12.63
2024-03-02T20:38:07.689Z,13.40
2024-03-02T20:40:35.941Z,13.13
2024-03-02T20:43:04.791Z,13.17
2024-03-02T20:45:33.100Z,12.90
2024-03-02T20:48:02.691Z,15.90
2024-03-02T20:50:30.942Z,14.80
2024-03-02T20:53:01.685Z,13.03
2024-03-02T20:55:30.018Z,14.70
2024-03-02T20:57:58.358Z,11.80
2024-03-02T21:00:26.696Z,14.20
2024-03-02T21:02:54.942Z,13.57
2024-03-02T21:05:25.025Z,14.23
2024-03-02T21:07:53.323Z,12.77
2024-03-02T21:10:21.659Z,12.80
2024-03-02T21:12:50.082Z,14.23
2024-03-02T21:15:18.568Z,13.70
2024-03-02T21:17:46.893Z,12.83
2024-03-02T21:20:15.230Z,13.53
2024-03-02T21:22:48.315Z,13.23
2024-03-02T21:25:21.114Z,13.30
2024-03-02T21:27:49.429Z,17.20
2024-03-02T21:30:19.534Z,13.63
2024-03-02T21:32:49.633Z,13.57
2024-03-02T21:35:17.904Z,11.83
2024-03-02T21:37:47.482Z,13.17
2024-03-02T21:40:17.560Z,13.10
2024-03-02T21:42:45.900Z,11.60
2024-03-02T21:45:14.306Z,12.87
2024-03-02T21:47:42.563Z,12.53
2024-03-02T21:50:12.782Z,9.83
2024-03-02T21:52:41.047Z,9.57
2024-03-02T21:55:11.876Z,10.33
2024-03-02T21:57:40.676Z,11.53
2024-03-02T22:00:10.674Z,9.93
2024-03-02T22:02:38.841Z,12.73
2024-03-02T22:05:08.220Z,10.70
2024-03-02T22:07:36.573Z,11.73
2024-03-02T22:10:06.668Z,10.57
2024-03-02T22:12:36.321Z,11.00
2024-03-02T22:15:05.094Z,13.63
2024-03-02T22:17:33.489Z,13.97
2024-03-02T22:20:02.633Z,15.07
2024-03-02T22:22:30.867Z,15.13
2024-03-02T22:24:59.267Z,13.83
2024-03-02T22:27:27.485Z,11.67
2024-03-02T22:29:57.052Z,12.13
2024-03-02T22:32:25.260Z,15.57
2024-03-02T22:34:53.503Z,16.10
2024-03-02T22:37:21.888Z,15.43
2024-03-02T22:39:50.122Z,15.80
2024-03-02T22:42:18.353Z,14.70
2024-03-02T22:44:46.572Z,17.67
2024-03-02T22:47:16.147Z,18.33
2024-03-02T22:49:44.357Z,19.03
2024-03-02T22:52:12.662Z,17.83
2024-03-02T22:54:40.953Z,16.07
2024-03-02T22:57:14.437Z,14.43
2024-03-02T22:59:42.635Z,14.97
2024-03-02T23:02:10.942Z,14.30
2024-03-02T23:04:40.615Z,17.43
2024-03-02T23:07:08.841Z,20.03
2024-03-02T23:09:37.142Z,16.70
2024-03-02T23:12:06.365Z,16.90
2024-03-02T23:14:34.588Z,19.10
2024-03-02T23:17:02.839Z,19.83
2024-03-02T23:19:31.095Z,14.33
2024-03-02T23:22:00.768Z,17.47
2024-03-02T23:24:29.045Z,16.23
2024-03-02T23:26:57.265Z,15.50
2024-03-02T23:29:25.482Z,13.60
2024-03-02T23:31:53.723Z,15.13
2024-03-02T23:34:22.023Z,16.37
2024-03-02T23:36:50.405Z,17.37
2024-03-02T23:39:46.660Z,15.20
2024-03-02T23:42:14.010Z,15.23
2024-03-02T23:44:42.209Z,15.87
2024-03-02T23:47:10.936Z,15.33
2024-03-02T23:49:39.148Z,16.53
2024-03-02T23:52:07.845Z,16.53
2024-03-02T23:54:37.695Z,17.10
2024-03-02T23:57:06.187Z,14.07
2024-03-02T23:59:34.541Z,14.00
